createdAt,value
2019-04-11T00:00:23.597Z,2
2019-04-11T00:01:33.863Z,2
2019-04-11T00:02:23.269Z,2
2019-04-11T00:03:23.455Z,2
2019-04-11T00:04:24.286Z,2
2019-04-11T00:05:23.387Z,2
2019-04-11T00:06:23.541Z,2
2019-04-11T00:07:24.492Z,2
2019-04-11T00:08:23.259Z,2
2019-04-11T00:09:23.429Z,2
2019-04-11T00:10:24.901Z,2
2019-04-11T00:11:23.916Z,2
2019-04-11T00:12:24.265Z,2
2019-04-11T00:13:25.689Z,2
2019-04-11T00:14:24.180Z,2
2019-04-11T00:15:23.218Z,2
2019-04-11T00:16:23.530Z,2
2019-04-11T00:17:23.211Z,2
2019-04-11T00:18:23.421Z,2
2019-04-11T00:19:23.295Z,2
2019-04-11T00:20:24.252Z,2
2019-04-11T00:21:23.258Z,2
2019-04-11T00:22:23.678Z,2
2019-04-11T00:23:23.925Z,2
2019-04-11T00:24:23.197Z,2
2019-04-11T00:25:23.318Z,2
2019-04-11T00:26:24.314Z,2
2019-04-11T00:27:23.322Z,2
2019-04-11T00:28:23.741Z,2
2019-04-11T00:29:23.306Z,2
2019-04-11T00:30:24.022Z,2
2019-04-11T00:31:23.265Z,2
2019-04-11T00:32:23.464Z,2
2019-04-11T00:33:24.653Z,3
2019-04-11T00:34:23.349Z,2
2019-04-11T00:35:23.813Z,2
2019-04-11T00:36:24.221Z,3
2019-04-11T00:37:23.502Z,2
2019-04-11T00:38:23.557Z,2
2019-04-11T00:39:23.667Z,2
2019-04-11T00:40:23.286Z,2
2019-04-11T00:41:23.905Z,2
2019-04-11T00:42:23.229Z,2
2019-04-11T00:44:23.239Z,2
2019-04-11T00:45:23.348Z,2
2019-04-11T00:46:24.468Z,2
2019-04-11T00:48:23.884Z,2
2019-04-11T00:49:24.196Z,2
2019-04-11T00:50:23.430Z,2
2019-04-11T00:51:23.553Z,2
2019-04-11T00:52:23.412Z,2
2019-04-11T00:53:23.428Z,2
2019-04-11T00:54:23.420Z,2
2019-04-11T00:55:23.816Z,2
2019-04-11T00:56:24.129Z,2
2019-04-11T00:57:23.412Z,2
2019-04-11T00:58:23.526Z,2
2019-04-11T00:59:24.507Z,2
2019-04-11T01:00:23.209Z,2
2019-04-11T01:01:23.943Z,2
2019-04-11T01:02:23.621Z,2
2019-04-11T01:03:24.264Z,2
2019-04-11T01:04:23.504Z,2
2019-04-11T01:05:23.553Z,2
2019-04-11T01:06:23.693Z,2
2019-04-11T01:07:23.328Z,2
2019-04-11T01:08:23.951Z,2
2019-04-11T01:09:24.212Z,2
2019-04-11T01:10:24.417Z,2
2019-04-11T01:11:23.741Z,2
2019-04-11T01:12:23.217Z,2
2019-04-11T01:13:23.820Z,2
2019-04-11T01:14:23.744Z,2
2019-04-11T01:15:23.804Z,2
2019-04-11T01:16:23.516Z,2
2019-04-11T01:17:23.389Z,2
2019-04-11T01:18:23.557Z,2
2019-04-11T01:19:23.209Z,2
2019-04-11T01:20:23.798Z,2
2019-04-11T01:21:24.269Z,2
2019-04-11T01:22:24.330Z,2
2019-04-11T01:23:23.244Z,2
2019-04-11T01:24:23.853Z,2
2019-04-11T01:25:24.358Z,2
2019-04-11T01:26:23.369Z,2
2019-04-11T01:27:23.717Z,2
2019-04-11T01:28:23.248Z,2
2019-04-11T01:29:23.251Z,2
2019-04-11T01:30:23.264Z,2
2019-04-11T01:31:23.347Z,2
2019-04-11T01:32:24.378Z,2
2019-04-11T01:33:24.121Z,2
2019-04-11T01:34:23.197Z,2
2019-04-11T01:35:23.502Z,2
2019-04-11T01:36:23.230Z,3
2019-04-11T01:37:23.910Z,2
2019-04-11T01:38:24.210Z,2
2019-04-11T01:39:23.319Z,2
2019-04-11T01:40:23.477Z,2
2019-04-11T01:41:23.267Z,2
2019-04-11T01:42:23.523Z,2
2019-04-11T01:43:24.087Z,2
2019-04-11T01:44:23.452Z,2
2019-04-11T01:45:23.297Z,2
2019-04-11T01:46:24.311Z,2
2019-04-11T01:47:23.577Z,2
2019-04-11T01:48:23.695Z,2
2019-04-11T01:49:24.033Z,2
2019-04-11T01:50:23.212Z,2
2019-04-11T01:51:23.437Z,2
2019-04-11T01:52:24.444Z,2
2019-04-11T01:53:24.699Z,2
2019-04-11T01:54:23.830Z,2
2019-04-11T01:55:24.120Z,2
2019-04-11T01:56:23.521Z,2
2019-04-11T01:57:23.231Z,2
2019-04-11T01:58:23.337Z,2
2019-04-11T01:59:23.846Z,2
2019-04-11T02:00:23.991Z,2
2019-04-11T02:01:23.472Z,2
2019-04-11T02:02:23.233Z,2
2019-04-11T02:03:23.449Z,2
2019-04-11T02:04:23.776Z,2
2019-04-11T02:05:23.250Z,2
2019-04-11T02:06:23.714Z,2
2019-04-11T02:07:23.269Z,2
2019-04-11T02:08:23.377Z,2
2019-04-11T02:09:24.188Z,2
2019-04-11T02:10:24.457Z,2
2019-04-11T02:11:23.650Z,2
2019-04-11T02:12:23.338Z,2
2019-04-11T02:13:23.787Z,2
2019-04-11T02:14:24.142Z,2
2019-04-11T02:15:24.085Z,2
2019-04-11T02:16:23.363Z,2
2019-04-11T02:17:24.377Z,3
2019-04-11T02:18:23.529Z,2
2019-04-11T02:19:23.867Z,2
2019-04-11T02:20:23.499Z,2
2019-04-11T02:21:23.474Z,2
2019-04-11T02:22:26.351Z,2
2019-04-11T02:23:23.427Z,2
2019-04-11T02:24:23.752Z,2
2019-04-11T02:25:23.362Z,2
2019-04-11T02:26:23.458Z,2
2019-04-11T02:27:24.777Z,2
2019-04-11T02:28:24.243Z,2
2019-04-11T02:29:23.548Z,2
2019-04-11T02:30:23.306Z,2
2019-04-11T02:31:23.793Z,2
2019-04-11T02:32:25.436Z,2
2019-04-11T02:33:24.775Z,2
2019-04-11T02:34:23.510Z,2
2019-04-11T02:35:24.227Z,2
2019-04-11T02:36:24.828Z,2
2019-04-11T02:37:24.206Z,2
2019-04-11T02:38:24.377Z,2
2019-04-11T02:39:26.578Z,2
2019-04-11T02:40:24.637Z,2
2019-04-11T02:41:23.187Z,2
2019-04-11T02:42:23.590Z,2
2019-04-11T02:43:25.098Z,2
2019-04-11T02:44:39.470Z,2
2019-04-11T02:45:30.725Z,2
2019-04-11T02:46:34.729Z,2
2019-04-11T02:47:27.601Z,2
2019-04-11T02:48:24.525Z,2
2019-04-11T02:49:24.278Z,2
2019-04-11T02:50:24.175Z,2
2019-04-11T02:51:24.839Z,2
2019-04-11T02:52:25.111Z,2
2019-04-11T02:53:24.454Z,2
2019-04-11T02:54:26.230Z,2
2019-04-11T02:55:23.415Z,2
2019-04-11T02:56:23.816Z,2
2019-04-11T02:57:23.546Z,2
2019-04-11T02:58:25.165Z,2
2019-04-11T02:59:25.160Z,2
2019-04-11T03:00:24.389Z,2
2019-04-11T03:01:24.246Z,2
2019-04-11T03:02:23.936Z,2
2019-04-11T03:03:23.445Z,2
2019-04-11T03:04:24.427Z,2
2019-04-11T03:05:24.554Z,2
2019-04-11T03:06:23.465Z,2
2019-04-11T03:07:24.719Z,2
2019-04-11T03:08:26.018Z,2
2019-04-11T03:10:24.844Z,2
2019-04-11T03:11:24.218Z,2
2019-04-11T03:12:24.052Z,3
2019-04-11T03:13:23.364Z,3
2019-04-11T03:14:23.448Z,4
2019-04-11T03:15:37.853Z,3
2019-04-11T03:16:33.212Z,3
2019-04-11T03:17:30.818Z,3
2019-04-11T03:18:40.806Z,2
2019-04-11T03:19:39.017Z,2
2019-04-11T03:20:31.699Z,2
2019-04-11T03:21:25.755Z,2
2019-04-11T03:22:24.814Z,2
2019-04-11T03:23:24.946Z,2
2019-04-11T03:24:24.357Z,2
2019-04-11T03:25:24.682Z,2
2019-04-11T03:26:25.047Z,2
2019-04-11T03:27:26.051Z,2
2019-04-11T03:28:27.623Z,2
2019-04-11T03:29:24.276Z,2
2019-04-11T03:30:34.088Z,2
2019-04-11T03:32:05.833Z,2
2019-04-11T03:34:17.499Z,2
2019-04-11T03:35:16.773Z,2
2019-04-11T03:37:47.929Z,2
2019-04-11T03:38:46.683Z,2
2019-04-11T03:39:48.773Z,2
2019-04-11T03:40:43.657Z,2
2019-04-11T03:41:39.971Z,2
2019-04-11T03:42:39.759Z,2
2019-04-11T03:43:33.786Z,2
2019-04-11T03:44:28.985Z,2
2019-04-11T03:45:43.838Z,2
2019-04-11T03:46:40.198Z,2
2019-04-11T03:47:34.832Z,2
2019-04-11T03:48:36.747Z,2
2019-04-11T03:49:31.636Z,2
2019-04-11T03:50:26.095Z,2
2019-04-11T03:51:23.269Z,2
2019-04-11T03:52:23.831Z,2
2019-04-11T03:53:25.291Z,2
2019-04-11T03:54:25.064Z,2
2019-04-11T03:55:23.551Z,2
2019-04-11T03:56:24.362Z,2
2019-04-11T03:57:23.725Z,2
2019-04-11T03:58:23.845Z,2
2019-04-11T03:59:23.833Z,2
2019-04-11T04:00:29.878Z,2
2019-04-11T04:01:24.761Z,2
2019-04-11T04:02:24.681Z,2
2019-04-11T04:03:24.558Z,2
2019-04-11T04:04:23.925Z,3
2019-04-11T04:05:23.927Z,2
2019-04-11T04:06:25.343Z,2
2019-04-11T04:07:23.535Z,2
2019-04-11T04:08:24.802Z,2
2019-04-11T04:09:23.980Z,2
2019-04-11T04:10:23.595Z,2
2019-04-11T04:11:25.362Z,2
2019-04-11T04:12:23.633Z,2
2019-04-11T04:13:24.768Z,2
2019-04-11T04:14:24.307Z,2
2019-04-11T04:15:37.529Z,2
2019-04-11T04:16:29.369Z,2
2019-04-11T04:17:24.017Z,2
2019-04-11T04:18:23.882Z,2
2019-04-11T04:19:25.002Z,2
2019-04-11T04:20:24.539Z,3
2019-04-11T04:21:24.756Z,2
2019-04-11T04:22:24.769Z,2
2019-04-11T04:23:24.774Z,2
2019-04-11T04:24:25.015Z,2
2019-04-11T04:25:24.308Z,2
2019-04-11T04:26:23.241Z,3
2019-04-11T04:27:27.464Z,2
2019-04-11T04:28:23.867Z,2
2019-04-11T04:29:25.047Z,2
2019-04-11T04:30:24.719Z,2
2019-04-11T04:31:24.402Z,2
2019-04-11T04:32:24.979Z,2
2019-04-11T04:33:23.744Z,2
2019-04-11T04:34:23.937Z,2
2019-04-11T04:35:25.497Z,2
2019-04-11T04:36:24.744Z,2
2019-04-11T04:37:24.708Z,2
2019-04-11T04:38:23.936Z,2
2019-04-11T04:39:24.783Z,2
2019-04-11T04:40:42.366Z,2
2019-04-11T04:41:30.823Z,2
2019-04-11T04:42:31.119Z,2
2019-04-11T04:43:24.983Z,2
2019-04-11T04:44:24.758Z,2
2019-04-11T04:45:23.906Z,2
2019-04-11T04:46:39.655Z,2
2019-04-11T04:47:32.623Z,2
2019-04-11T04:48:26.758Z,2
2019-04-11T04:49:23.679Z,2
2019-04-11T04:50:24.472Z,2
2019-04-11T04:51:24.309Z,2
2019-04-11T04:52:25.050Z,2
2019-04-11T04:53:25.668Z,2
2019-04-11T04:54:24.011Z,2
2019-04-11T04:55:24.107Z,2
2019-04-11T04:56:27.203Z,2
2019-04-11T04:57:24.450Z,2
2019-04-11T04:58:24.838Z,2
2019-04-11T04:59:23.835Z,2
2019-04-11T05:00:23.761Z,3
2019-04-11T05:01:23.865Z,2
2019-04-11T05:02:24.057Z,3
2019-04-11T05:03:24.515Z,3
2019-04-11T05:04:23.600Z,2
2019-04-11T05:05:24.376Z,2
2019-04-11T05:06:24.164Z,2
2019-04-11T05:07:23.599Z,2
2019-04-11T05:08:24.677Z,2
2019-04-11T05:09:23.638Z,2
2019-04-11T05:10:24.158Z,2
2019-04-11T05:11:23.350Z,2
2019-04-11T05:12:23.278Z,2
2019-04-11T05:13:23.904Z,2
2019-04-11T05:14:23.386Z,2
2019-04-11T05:15:24.362Z,2
2019-04-11T05:16:23.250Z,2
2019-04-11T05:17:25.577Z,2
2019-04-11T05:18:23.680Z,2
2019-04-11T05:19:23.770Z,2
2019-04-11T05:20:23.861Z,2
2019-04-11T05:21:23.414Z,2
2019-04-11T05:22:24.557Z,2
2019-04-11T05:23:23.596Z,2
2019-04-11T05:24:23.401Z,2
2019-04-11T05:25:23.247Z,2
2019-04-11T05:26:23.611Z,2
2019-04-11T05:27:23.258Z,2
2019-04-11T05:28:23.447Z,3
2019-04-11T05:29:23.332Z,2
2019-04-11T05:30:23.256Z,2
2019-04-11T05:32:23.912Z,2
2019-04-11T05:33:23.417Z,2
2019-04-11T05:34:23.831Z,3
2019-04-11T05:35:23.397Z,3
2019-04-11T05:36:23.241Z,2
2019-04-11T05:37:23.267Z,2
2019-04-11T05:38:23.334Z,2
2019-04-11T05:39:23.493Z,2
2019-04-11T05:40:23.960Z,2
2019-04-11T05:41:24.540Z,2
2019-04-11T05:42:25.540Z,2
2019-04-11T05:43:28.111Z,2
2019-04-11T05:44:23.317Z,2
2019-04-11T05:45:25.684Z,2
2019-04-11T05:46:31.013Z,2
2019-04-11T05:47:23.474Z,5
2019-04-11T05:48:25.563Z,3
2019-04-11T05:49:23.564Z,4
2019-04-11T05:50:24.233Z,2
2019-04-11T05:51:23.844Z,3
2019-04-11T05:52:24.086Z,7
2019-04-11T05:53:23.237Z,6
2019-04-11T05:54:23.874Z,4
2019-04-11T05:55:23.860Z,4
2019-04-11T05:56:25.794Z,6
2019-04-11T05:57:24.424Z,4
2019-04-11T05:58:24.124Z,3
2019-04-11T05:59:24.456Z,3
2019-04-11T06:00:23.491Z,3
2019-04-11T06:01:24.399Z,3
2019-04-11T06:02:23.253Z,3
2019-04-11T06:03:23.947Z,3
2019-04-11T06:04:25.556Z,3
2019-04-11T06:05:24.595Z,3
2019-04-11T06:06:23.256Z,3
2019-04-11T06:07:23.465Z,3
2019-04-11T06:08:26.974Z,3
2019-04-11T06:09:23.327Z,3
2019-04-11T06:10:24.094Z,3
2019-04-11T06:11:24.115Z,3
2019-04-11T06:12:24.150Z,7
2019-04-11T06:13:24.660Z,6
2019-04-11T06:14:25.022Z,5
2019-04-11T06:15:25.006Z,5
2019-04-11T06:16:35.683Z,4
2019-04-11T06:17:23.904Z,3
2019-04-11T06:18:30.554Z,5
2019-04-11T06:19:23.093Z,5
2019-04-11T06:20:27.107Z,8
2019-04-11T06:21:24.291Z,5
2019-04-11T06:22:23.486Z,4
2019-04-11T06:23:23.456Z,3
2019-04-11T06:24:23.838Z,4
2019-04-11T06:25:23.519Z,2
2019-04-11T06:26:23.056Z,2
2019-04-11T06:27:24.193Z,2
2019-04-11T06:28:22.832Z,2
2019-04-11T06:29:26.081Z,2
2019-04-11T06:30:22.836Z,3
2019-04-11T06:31:23.622Z,2
2019-04-11T06:32:23.575Z,2
2019-04-11T06:33:23.139Z,2
2019-04-11T06:34:24.121Z,2
2019-04-11T06:35:24.095Z,2
2019-04-11T06:36:23.397Z,3
2019-04-11T06:37:23.091Z,3
2019-04-11T06:38:24.693Z,3
2019-04-11T06:39:23.199Z,3
2019-04-11T06:40:23.159Z,3
2019-04-11T06:41:24.278Z,3
2019-04-11T06:42:24.571Z,4
2019-04-11T06:43:23.648Z,2
2019-04-11T06:44:23.810Z,3
2019-04-11T06:45:23.833Z,3
2019-04-11T06:46:23.227Z,3
2019-04-11T06:47:23.320Z,3
2019-04-11T06:48:24.775Z,4
2019-04-11T06:49:24.555Z,4
2019-04-11T06:50:23.305Z,2
2019-04-11T06:51:24.020Z,3
2019-04-11T06:52:24.419Z,4
2019-04-11T06:53:23.845Z,4
2019-04-11T06:54:23.400Z,4
2019-04-11T06:55:23.476Z,4
2019-04-11T06:56:23.359Z,3
2019-04-11T06:57:23.621Z,3
2019-04-11T06:58:25.661Z,3
2019-04-11T06:59:23.923Z,3
2019-04-11T07:00:23.251Z,3
2019-04-11T07:01:23.375Z,3
2019-04-11T07:02:26.185Z,3
2019-04-11T07:03:25.908Z,3
2019-04-11T07:04:23.296Z,4
2019-04-11T07:05:23.245Z,3
2019-04-11T07:06:23.804Z,3
2019-04-11T07:07:27.681Z,3
2019-04-11T07:08:23.979Z,4
2019-04-11T07:09:24.348Z,4
2019-04-11T07:10:24.598Z,3
2019-04-11T07:11:23.492Z,3
2019-04-11T07:12:24.452Z,4
2019-04-11T07:13:23.233Z,4
2019-04-11T07:14:23.509Z,3
2019-04-11T07:15:23.342Z,2
2019-04-11T07:16:23.231Z,2
2019-04-11T07:17:23.258Z,3
2019-04-11T07:18:24.697Z,2
2019-04-11T07:19:23.343Z,3
2019-04-11T07:20:23.313Z,2
2019-04-11T07:21:23.335Z,3
2019-04-11T07:22:23.394Z,3
2019-04-11T07:23:24.410Z,3
2019-04-11T07:24:25.112Z,3
2019-04-11T07:25:23.375Z,3
2019-04-11T07:26:23.362Z,2
2019-04-11T07:27:23.794Z,2
2019-04-11T07:28:23.211Z,3
2019-04-11T07:29:24.011Z,3
2019-04-11T07:30:25.109Z,2
2019-04-11T07:31:23.452Z,3
2019-04-11T07:32:23.544Z,3
2019-04-11T07:33:24.321Z,3
2019-04-11T07:34:24.134Z,3
2019-04-11T07:35:23.095Z,3
2019-04-11T07:36:23.140Z,3
2019-04-11T07:37:23.541Z,3
2019-04-11T07:38:23.190Z,2
2019-04-11T07:39:24.493Z,2
2019-04-11T07:40:24.055Z,2
2019-04-11T07:41:23.961Z,2
2019-04-11T07:42:23.880Z,2
2019-04-11T07:43:23.010Z,3
2019-04-11T07:44:23.891Z,3
2019-04-11T07:45:23.176Z,2
2019-04-11T07:46:24.574Z,2
2019-04-11T07:47:26.319Z,2
2019-04-11T07:48:23.221Z,2
2019-04-11T07:49:24.435Z,2
2019-04-11T07:50:24.613Z,2
2019-04-11T07:51:23.414Z,2
2019-04-11T07:52:23.229Z,2
2019-04-11T07:53:24.023Z,2
2019-04-11T07:54:23.232Z,2
2019-04-11T07:55:23.456Z,2
2019-04-11T07:56:23.269Z,2
2019-04-11T07:57:23.237Z,2
2019-04-11T07:58:23.930Z,2
2019-04-11T07:59:23.397Z,2
2019-04-11T08:00:37.911Z,3
2019-04-11T08:01:23.303Z,2
2019-04-11T08:02:24.376Z,2
2019-04-11T08:03:23.553Z,2
2019-04-11T08:04:23.978Z,2
2019-04-11T08:05:23.660Z,2
2019-04-11T08:06:24.339Z,2
2019-04-11T08:07:24.365Z,2
2019-04-11T08:08:23.334Z,2
2019-04-11T08:09:24.409Z,2
2019-04-11T08:10:23.379Z,2
2019-04-11T08:11:23.493Z,2
2019-04-11T08:12:23.596Z,2
2019-04-11T08:13:23.300Z,2
2019-04-11T08:14:24.427Z,2
2019-04-11T08:15:23.778Z,2
2019-04-11T08:16:23.513Z,2
2019-04-11T08:17:30.936Z,2
2019-04-11T08:18:24.330Z,2
2019-04-11T08:19:23.200Z,2
2019-04-11T08:20:23.523Z,2
2019-04-11T08:21:23.445Z,2
2019-04-11T08:22:23.209Z,2
2019-04-11T08:23:23.515Z,2
2019-04-11T08:24:25.796Z,2
2019-04-11T08:25:23.351Z,2
2019-04-11T08:26:24.150Z,2
2019-04-11T08:27:23.284Z,2
2019-04-11T08:28:23.264Z,2
2019-04-11T08:29:24.340Z,2
2019-04-11T08:30:24.626Z,2
2019-04-11T08:31:24.389Z,2
2019-04-11T08:32:23.418Z,2
2019-04-11T08:33:24.602Z,2
2019-04-11T08:34:23.724Z,2
2019-04-11T08:35:24.059Z,2
2019-04-11T08:36:24.016Z,2
2019-04-11T08:37:23.389Z,2
2019-04-11T08:38:24.701Z,2
2019-04-11T08:39:24.745Z,2
2019-04-11T08:40:23.945Z,2
2019-04-11T08:41:23.614Z,2
2019-04-11T08:42:23.430Z,2
2019-04-11T08:43:23.656Z,2
2019-04-11T08:44:23.819Z,2
2019-04-11T08:45:23.705Z,2
2019-04-11T08:46:23.262Z,2
2019-04-11T08:47:24.461Z,2
2019-04-11T08:48:23.217Z,2
2019-04-11T08:49:23.757Z,2
2019-04-11T08:50:23.253Z,2
2019-04-11T08:51:23.397Z,2
2019-04-11T08:52:24.329Z,2
2019-04-11T08:53:23.269Z,2
2019-04-11T08:54:23.774Z,2
2019-04-11T08:55:23.186Z,2
2019-04-11T08:56:23.516Z,2
2019-04-11T08:57:23.443Z,2
2019-04-11T08:58:24.591Z,2
2019-04-11T08:59:23.436Z,2
2019-04-11T09:00:24.257Z,2
2019-04-11T09:01:24.359Z,2
2019-04-11T09:02:23.266Z,2
2019-04-11T09:03:23.899Z,2
2019-04-11T09:04:23.991Z,2
2019-04-11T09:05:23.284Z,2
2019-04-11T09:06:23.221Z,2
2019-04-11T09:07:23.297Z,2
2019-04-11T09:08:24.701Z,2
2019-04-11T09:09:23.380Z,2
2019-04-11T09:10:24.146Z,2
2019-04-11T09:11:24.533Z,2
2019-04-11T09:12:24.552Z,2
2019-04-11T09:13:23.304Z,2
2019-04-11T09:14:24.303Z,2
2019-04-11T09:15:24.425Z,2
2019-04-11T09:16:23.715Z,2
2019-04-11T09:17:23.782Z,2
2019-04-11T09:18:23.254Z,2
2019-04-11T09:19:23.418Z,2
2019-04-11T09:20:23.440Z,2
2019-04-11T09:21:24.361Z,2
2019-04-11T09:22:23.205Z,2
2019-04-11T09:23:23.823Z,2
2019-04-11T09:24:24.204Z,2
2019-04-11T09:25:23.341Z,2
2019-04-11T09:26:23.610Z,2
2019-04-11T09:27:23.213Z,2
2019-04-11T09:28:23.374Z,2
2019-04-11T09:29:24.082Z,2
2019-04-11T09:30:23.450Z,2
2019-04-11T09:31:23.333Z,2
2019-04-11T09:32:25.073Z,2
2019-04-11T09:33:23.215Z,2
2019-04-11T09:34:23.819Z,2
2019-04-11T09:35:24.107Z,2
2019-04-11T09:36:23.943Z,2
2019-04-11T09:37:23.283Z,2
2019-04-11T09:38:24.326Z,2
2019-04-11T09:39:23.402Z,2
2019-04-11T09:40:24.132Z,2
2019-04-11T09:41:23.251Z,2
2019-04-11T09:42:26.115Z,3
2019-04-11T09:43:24.132Z,2
2019-04-11T09:44:23.214Z,2
2019-04-11T09:45:23.676Z,2
2019-04-11T09:46:24.056Z,2
2019-04-11T09:47:24.202Z,2
2019-04-11T09:48:24.519Z,2
2019-04-11T09:49:23.309Z,2
2019-04-11T09:50:23.082Z,2
2019-04-11T09:51:23.509Z,2
2019-04-11T09:52:23.188Z,2
2019-04-11T09:53:23.165Z,2
2019-04-11T09:54:23.979Z,2
2019-04-11T09:55:23.391Z,2
2019-04-11T09:56:23.149Z,2
2019-04-11T09:57:23.147Z,2
2019-04-11T09:58:23.273Z,2
2019-04-11T09:59:23.217Z,3
2019-04-11T10:00:23.200Z,3
2019-04-11T10:01:24.526Z,2
2019-04-11T10:02:23.395Z,2
2019-04-11T10:03:23.537Z,2
2019-04-11T10:04:23.438Z,2
2019-04-11T10:05:24.433Z,2
2019-04-11T10:06:23.794Z,2
2019-04-11T10:07:23.795Z,2
2019-04-11T10:08:26.647Z,2
2019-04-11T10:09:24.052Z,2
2019-04-11T10:10:24.544Z,2
2019-04-11T10:11:24.130Z,2
2019-04-11T10:12:24.189Z,3
2019-04-11T10:13:23.271Z,3
2019-04-11T10:14:23.727Z,3
2019-04-11T10:15:23.327Z,3
2019-04-11T10:16:24.168Z,3
2019-04-11T10:17:26.003Z,4
2019-04-11T10:18:26.137Z,3
2019-04-11T10:19:24.368Z,3
2019-04-11T10:20:24.481Z,3
2019-04-11T10:21:24.663Z,2
2019-04-11T10:22:23.245Z,2
2019-04-11T10:23:24.901Z,2
2019-04-11T10:24:24.253Z,2
2019-04-11T10:25:23.481Z,2
2019-04-11T10:26:23.578Z,2
2019-04-11T10:27:24.658Z,2
2019-04-11T10:28:23.210Z,2
2019-04-11T10:29:23.623Z,2
2019-04-11T10:30:23.993Z,2
2019-04-11T10:31:23.356Z,2
2019-04-11T10:32:23.353Z,2
2019-04-11T10:33:24.656Z,2
2019-04-11T10:34:23.691Z,2
2019-04-11T10:35:24.067Z,2
2019-04-11T10:36:23.525Z,2
2019-04-11T10:37:23.486Z,2
2019-04-11T10:38:24.473Z,2
2019-04-11T10:39:23.201Z,2
2019-04-11T10:40:24.042Z,2
2019-04-11T10:41:23.510Z,2
2019-04-11T10:42:23.318Z,2
2019-04-11T10:43:24.497Z,2
2019-04-11T10:44:23.534Z,3
2019-04-11T10:45:24.757Z,3
2019-04-11T10:46:23.229Z,3
2019-04-11T10:47:23.385Z,3
2019-04-11T10:48:32.586Z,3
2019-04-11T10:49:23.354Z,3
2019-04-11T10:50:23.679Z,3
2019-04-11T10:51:23.272Z,3
2019-04-11T10:52:24.528Z,3
2019-04-11T10:53:24.958Z,4
2019-04-11T10:54:23.986Z,4
2019-04-11T10:55:23.254Z,4
2019-04-11T10:57:24.285Z,6
2019-04-11T10:59:25.212Z,7
2019-04-11T11:00:23.400Z,8
2019-04-11T11:01:24.986Z,8
2019-04-11T11:02:23.222Z,9
2019-04-11T11:03:29.056Z,10
2019-04-11T11:04:27.753Z,10
2019-04-11T11:05:24.290Z,2
2019-04-11T11:06:23.973Z,2
2019-04-11T11:07:24.389Z,2
2019-04-11T11:08:23.570Z,3
2019-04-11T11:09:23.239Z,3
2019-04-11T11:10:23.689Z,3
2019-04-11T11:11:24.106Z,3
2019-04-11T11:12:23.607Z,3
2019-04-11T11:13:23.601Z,3
2019-04-11T11:14:23.380Z,3
2019-04-11T11:15:23.379Z,5
2019-04-11T11:16:24.812Z,4
2019-04-11T11:17:43.745Z,5
2019-04-11T11:18:44.042Z,3
2019-04-11T11:19:41.865Z,3
2019-04-11T11:20:29.943Z,4
2019-04-11T11:21:27.546Z,3
2019-04-11T11:22:23.731Z,3
2019-04-11T11:23:24.584Z,4
2019-04-11T11:24:23.910Z,3
2019-04-11T11:25:24.578Z,3
2019-04-11T11:26:25.637Z,3
2019-04-11T11:27:24.407Z,3
2019-04-11T11:28:23.775Z,3
2019-04-11T11:29:24.289Z,2
2019-04-11T11:30:23.290Z,3
2019-04-11T11:31:24.424Z,2
2019-04-11T11:32:23.406Z,4
2019-04-11T11:33:23.941Z,4
2019-04-11T11:34:24.700Z,3
2019-04-11T11:35:27.548Z,2
2019-04-11T11:36:23.606Z,2
2019-04-11T11:37:23.264Z,3
2019-04-11T11:38:24.069Z,3
2019-04-11T11:39:23.286Z,3
2019-04-11T11:40:23.774Z,3
2019-04-11T11:41:23.209Z,3
2019-04-11T11:42:23.441Z,3
2019-04-11T11:43:25.267Z,4
2019-04-11T11:44:24.494Z,3
2019-04-11T11:45:23.697Z,3
2019-04-11T11:46:26.773Z,2
2019-04-11T11:47:23.741Z,2
2019-04-11T11:48:24.780Z,2
2019-04-11T11:49:37.510Z,2
2019-04-11T11:50:23.827Z,2
2019-04-11T11:51:27.022Z,2
2019-04-11T11:52:23.348Z,2
2019-04-11T11:53:25.403Z,2
2019-04-11T11:54:24.017Z,2
2019-04-11T11:55:23.370Z,2
2019-04-11T11:56:24.133Z,2
2019-04-11T11:57:23.574Z,2
2019-04-11T11:58:23.700Z,2
2019-04-11T11:59:23.358Z,2
2019-04-11T12:00:23.531Z,2
2019-04-11T12:01:24.051Z,2
2019-04-11T12:02:23.207Z,3
2019-04-11T12:03:26.457Z,2
2019-04-11T12:04:24.257Z,3
2019-04-11T12:05:26.087Z,2
2019-04-11T12:06:23.841Z,2
2019-04-11T12:07:23.189Z,2
2019-04-11T12:08:24.525Z,2
2019-04-11T12:09:23.215Z,2
2019-04-11T12:10:23.947Z,2
2019-04-11T12:11:24.115Z,3
2019-04-11T12:12:23.938Z,2
2019-04-11T12:13:23.214Z,2
2019-04-11T12:14:24.259Z,3
2019-04-11T12:15:25.730Z,2
2019-04-11T12:16:23.760Z,2
2019-04-11T12:17:23.355Z,2
2019-04-11T12:18:24.526Z,2
2019-04-11T12:19:24.672Z,2
2019-04-11T12:20:23.315Z,2
2019-04-11T12:21:26.357Z,2
2019-04-11T12:22:24.238Z,2
2019-04-11T12:23:24.214Z,2
2019-04-11T12:24:23.468Z,2
2019-04-11T12:25:25.004Z,2
2019-04-11T12:26:27.915Z,2
2019-04-11T12:27:24.476Z,2
2019-04-11T12:28:25.571Z,2
2019-04-11T12:29:24.081Z,2
2019-04-11T12:30:24.585Z,2
2019-04-11T12:31:24.558Z,3
2019-04-11T12:32:24.249Z,2
2019-04-11T12:33:23.574Z,3
2019-04-11T12:34:24.055Z,3
2019-04-11T12:35:28.606Z,3
2019-04-11T12:36:24.352Z,2
2019-04-11T12:37:23.362Z,2
2019-04-11T12:38:24.695Z,2
2019-04-11T12:39:24.866Z,2
2019-04-11T12:40:23.285Z,2
2019-04-11T12:41:23.509Z,2
2019-04-11T12:42:23.270Z,2
2019-04-11T12:43:24.262Z,2
2019-04-11T12:44:24.334Z,2
2019-04-11T12:45:23.435Z,3
2019-04-11T12:46:29.822Z,3
2019-04-11T12:47:23.243Z,3
2019-04-11T12:48:23.276Z,3
2019-04-11T12:49:23.299Z,3
2019-04-11T12:50:23.659Z,3
2019-04-11T12:51:23.231Z,3
2019-04-11T12:52:23.505Z,3
2019-04-11T12:53:23.202Z,3
2019-04-11T12:54:23.401Z,3
2019-04-11T12:55:23.197Z,3
2019-04-11T12:56:23.274Z,3
2019-04-11T12:57:23.553Z,4
2019-04-11T12:58:25.194Z,4
2019-04-11T12:59:23.787Z,4
2019-04-11T13:00:23.505Z,4
2019-04-11T13:01:31.286Z,3
2019-04-11T13:02:25.241Z,3
2019-04-11T13:03:23.333Z,3
2019-04-11T13:04:23.327Z,3
2019-04-11T13:05:23.391Z,3
2019-04-11T13:06:34.606Z,3
2019-04-11T13:07:23.302Z,3
2019-04-11T13:08:23.337Z,3
2019-04-11T13:09:23.270Z,3
2019-04-11T13:10:24.167Z,3
2019-04-11T13:11:23.388Z,3
2019-04-11T13:12:23.446Z,3
2019-04-11T13:13:23.557Z,2
2019-04-11T13:14:23.262Z,2
2019-04-11T13:15:23.332Z,2
2019-04-11T13:16:25.589Z,3
2019-04-11T13:17:23.267Z,3
2019-04-11T13:18:23.325Z,3
2019-04-11T13:19:25.921Z,2
2019-04-11T13:20:23.325Z,2
2019-04-11T13:21:23.200Z,2
2019-04-11T13:22:23.427Z,3
2019-04-11T13:23:23.271Z,4
2019-04-11T13:24:23.296Z,3
2019-04-11T13:25:23.211Z,2
2019-04-11T13:26:23.314Z,2
2019-04-11T13:27:23.202Z,2
2019-04-11T13:28:23.241Z,2
2019-04-11T13:29:23.416Z,3
2019-04-11T13:30:23.234Z,3
2019-04-11T13:31:23.429Z,2
2019-04-11T13:32:24.280Z,2
2019-04-11T13:33:23.400Z,2
2019-04-11T13:34:23.203Z,3
2019-04-11T13:35:23.435Z,4
2019-04-11T13:37:26.338Z,4
2019-04-11T13:38:28.937Z,4
2019-04-11T13:39:25.631Z,5
2019-04-11T13:40:44.504Z,6
2019-04-11T13:41:24.265Z,6
2019-04-11T13:42:24.430Z,6
2019-04-11T13:43:25.566Z,6
2019-04-11T13:44:25.472Z,7
2019-04-11T13:45:24.056Z,7
2019-04-11T13:47:23.468Z,7
2019-04-11T13:48:24.064Z,7
2019-04-11T13:49:24.280Z,7
2019-04-11T13:50:24.825Z,7
2019-04-11T13:51:23.765Z,5
2019-04-11T13:52:23.303Z,4
2019-04-11T13:53:23.477Z,3
2019-04-11T13:54:23.627Z,5
2019-04-11T13:55:23.303Z,3
2019-04-11T13:56:23.655Z,3
2019-04-11T13:57:23.284Z,2
2019-04-11T13:58:23.537Z,2
2019-04-11T13:59:23.243Z,3
2019-04-11T14:00:23.378Z,3
2019-04-11T14:01:23.224Z,3
2019-04-11T14:02:23.219Z,3
2019-04-11T14:03:23.433Z,3
2019-04-11T14:04:23.260Z,2
2019-04-11T14:05:23.474Z,2
2019-04-11T14:06:23.224Z,2
2019-04-11T14:07:24.110Z,2
2019-04-11T14:08:23.332Z,2
2019-04-11T14:09:23.264Z,3
2019-04-11T14:10:24.489Z,3
2019-04-11T14:11:23.235Z,3
2019-04-11T14:12:26.302Z,3
2019-04-11T14:13:23.248Z,4
2019-04-11T14:14:23.442Z,3
2019-04-11T14:15:23.663Z,3
2019-04-11T14:16:23.324Z,3
2019-04-11T14:17:23.773Z,3
2019-04-11T14:18:23.326Z,3
2019-04-11T14:19:23.639Z,3
2019-04-11T14:20:29.300Z,2
2019-04-11T14:21:23.389Z,2
2019-04-11T14:22:28.965Z,3
2019-04-11T14:23:23.330Z,3
2019-04-11T14:24:23.357Z,3
2019-04-11T14:25:23.332Z,3
2019-04-11T14:26:23.336Z,3
2019-04-11T14:27:23.314Z,3
2019-04-11T14:28:23.253Z,3
2019-04-11T14:29:23.576Z,3
2019-04-11T14:30:23.303Z,3
2019-04-11T14:31:23.497Z,2
2019-04-11T14:32:23.604Z,2
2019-04-11T14:33:25.690Z,2
2019-04-11T14:34:23.273Z,2
2019-04-11T14:35:23.415Z,2
2019-04-11T14:36:32.863Z,2
2019-04-11T14:37:23.385Z,2
2019-04-11T14:38:23.402Z,2
2019-04-11T14:39:23.356Z,2
2019-04-11T14:40:23.461Z,2
2019-04-11T14:41:23.306Z,2
2019-04-11T14:42:23.690Z,3
2019-04-11T14:43:23.241Z,3
2019-04-11T14:44:23.437Z,3
2019-04-11T14:45:23.606Z,3
2019-04-11T14:46:23.445Z,2
2019-04-11T14:47:23.769Z,3
2019-04-11T14:48:23.257Z,3
2019-04-11T14:49:23.508Z,2
2019-04-11T14:50:23.403Z,2
2019-04-11T14:51:23.865Z,3
2019-04-11T14:52:25.227Z,3
2019-04-11T14:53:23.328Z,3
2019-04-11T14:54:23.582Z,3
2019-04-11T14:55:23.305Z,4
2019-04-11T14:56:23.486Z,3
2019-04-11T14:57:24.128Z,2
2019-04-11T14:58:24.171Z,2